Time;durP1;ratioP1;P1;durP2;ratioP2;P2;SDS_P1;SDS_P2;PMS_P1;PMS_P2;Temp;Humidity;BMP_temperature;BMP_pressure;BME280_temperature;BME280_humidity;BME280_pressure;Samples;Min_cycle;Max_cycle;Signal;HPM_P1;HPM_P2
2021/11/25 00:02:09;;;;;;;19.33;13.77;;;4.50;99.90;;;;;;4994966;28;20244;-60
2021/11/25 00:04:35;;;;;;;21.43;14.97;;;4.50;99.90;;;;;;4994749;28;20439;-54
2021/11/25 00:07:00;;;;;;;19.80;15.30;;;4.30;99.90;;;;;;4994459;28;20164;-55
2021/11/25 00:09:26;;;;;;;19.57;15.67;;;4.30;99.90;;;;;;4994990;28;20231;-55
2021/11/25 00:11:51;;;;;;;24.13;15.20;;;4.30;99.90;;;;;;4994485;28;20204;-54
2021/11/25 00:14:17;;;;;;;24.43;16.00;;;4.40;99.90;;;;;;4995100;28;20615;-57
2021/11/25 00:16:43;;;;;;;18.97;13.57;;;4.40;99.90;;;;;;4995048;28;20255;-54
2021/11/25 00:19:09;;;;;;;21.80;15.43;;;4.50;99.90;;;;;;4995259;28;20192;-54
2021/11/25 00:21:34;;;;;;;20.07;15.23;;;4.40;99.90;;;;;;4994933;28;20196;-55
2021/11/25 00:24:00;;;;;;;20.57;14.67;;;4.40;99.90;;;;;;4995170;28;20177;-55
2021/11/25 00:26:26;;;;;;;19.97;15.40;;;4.50;99.90;;;;;;4995383;28;20499;-56
2021/11/25 00:28:51;;;;;;;19.77;15.50;;;4.60;99.90;;;;;;5001958;28;20204;-57
2021/11/25 00:31:17;;;;;;;19.97;14.80;;;4.60;99.90;;;;;;5002003;28;20193;-62
2021/11/25 00:33:43;;;;;;;19.60;15.63;;;4.60;99.90;;;;;;5005305;28;20216;-59
2021/11/25 00:36:08;;;;;;;20.60;15.50;;;4.60;99.90;;;;;;5002400;28;20177;-62
2021/11/25 00:38:34;;;;;;;19.27;14.53;;;4.50;99.90;;;;;;5003261;28;20196;-62
2021/11/25 00:41:00;;;;;;;20.70;15.90;;;4.50;99.90;;;;;;4997973;28;20628;-62
2021/11/25 00:43:26;;;;;;;20.20;14.97;;;4.40;99.90;;;;;;4995755;28;20446;-62
2021/11/25 00:45:52;;;;;;;21.80;16.07;;;4.40;99.90;;;;;;4995649;28;20169;-58
2021/11/25 00:48:17;;;;;;;21.93;15.70;;;4.50;99.90;;;;;;4995656;28;20176;-57
2021/11/25 00:50:43;;;;;;;22.17;15.80;;;4.50;99.90;;;;;;4994699;28;20450;-57
2021/11/25 00:53:10;;;;;;;20.73;16.30;;;4.40;99.90;;;;;;4994293;28;20172;-57
2021/11/25 00:55:38;;;;;;;21.07;15.00;;;4.50;99.90;;;;;;4994591;28;20411;-62
2021/11/25 00:58:04;;;;;;;23.60;15.57;;;4.60;99.90;;;;;;4995975;28;20455;-61
2021/11/25 01:00:29;;;;;;;19.37;14.87;;;4.60;99.90;;;;;;4996332;28;20407;-61
2021/11/25 01:02:55;;;;;;;20.33;15.33;;;4.60;99.90;;;;;;4996238;28;20271;-61
2021/11/25 01:05:21;;;;;;;21.00;15.20;;;4.60;99.90;;;;;;5002848;28;20172;-62
2021/11/25 01:07:47;;;;;;;22.73;15.87;;;4.60;99.90;;;;;;5003340;28;20165;-62
2021/11/25 01:10:16;;;;;;;26.60;17.10;;;4.70;99.90;;;;;;5000986;28;20432;-62
2021/11/25 01:12:42;;;;;;;22.33;15.50;;;4.60;99.90;;;;;;4998051;28;20419;-62
2021/11/25 01:15:09;;;;;;;19.97;15.47;;;4.60;99.90;;;;;;5001573;28;20419;-62
2021/11/25 01:17:36;;;;;;;21.93;15.90;;;4.60;99.90;;;;;;5000199;28;20187;-62
2021/11/25 01:20:03;;;;;;;23.40;17.00;;;4.60;99.90;;;;;;4998495;28;20455;-62
2021/11/25 01:22:29;;;;;;;19.50;14.10;;;4.70;99.90;;;;;;4998433;28;20442;-62
2021/11/25 01:24:54;;;;;;;22.17;15.10;;;4.80;99.90;;;;;;4998183;28;20403;-55
2021/11/25 01:27:20;;;;;;;22.37;15.17;;;4.80;99.90;;;;;;4997671;28;20247;-56
2021/11/25 01:29:45;;;;;;;20.00;15.17;;;4.70;99.90;;;;;;4998066;28;20169;-57
2021/11/25 01:32:11;;;;;;;17.03;13.70;;;4.60;99.90;;;;;;4997824;28;20192;-57
2021/11/25 01:34:37;;;;;;;18.00;14.17;;;4.60;99.90;;;;;;4992698;28;20177;-58
2021/11/25 01:37:02;;;;;;;21.60;13.90;;;4.60;99.90;;;;;;4987086;28;20264;-57
2021/11/25 01:39:28;;;;;;;18.27;13.73;;;4.70;99.90;;;;;;4960985;28;20666;-55
2021/11/25 01:41:53;;;;;;;19.67;14.80;;;4.70;99.90;;;;;;4989590;28;20220;-57
2021/11/25 01:44:19;;;;;;;26.07;18.00;;;4.70;99.90;;;;;;4980260;28;20208;-55
2021/11/25 01:46:46;;;;;;;21.73;17.03;;;4.50;99.90;;;;;;4997920;28;20179;-59
2021/11/25 01:49:12;;;;;;;21.00;15.40;;;4.60;99.90;;;;;;4997692;28;20207;-57
2021/11/25 01:51:37;;;;;;;24.03;17.17;;;4.70;99.90;;;;;;4997570;28;20845;-57
2021/11/25 01:54:03;;;;;;;25.87;16.57;;;4.70;99.90;;;;;;4997673;28;20238;-57
2021/11/25 01:56:29;;;;;;;22.37;15.63;;;4.60;99.90;;;;;;4997343;28;20593;-56
2021/11/25 01:58:55;;;;;;;22.67;16.20;;;4.70;99.90;;;;;;4997735;28;20538;-57
2021/11/25 02:01:22;;;;;;;25.83;17.23;;;4.60;99.90;;;;;;4997638;28;20804;-57
2021/11/25 02:03:49;;;;;;;21.20;16.93;;;4.60;99.90;;;;;;4997093;28;20449;-57
2021/11/25 02:06:17;;;;;;;21.30;15.27;;;4.60;99.90;;;;;;4996589;28;20507;-57
2021/11/25 02:08:43;;;;;;;23.20;15.77;;;4.60;99.90;;;;;;4997219;28;20415;-58
2021/11/25 02:11:08;;;;;;;19.83;16.00;;;4.70;99.90;;;;;;4996501;28;20440;-57
2021/11/25 02:13:34;;;;;;;19.20;17.07;;;4.60;99.90;;;;;;4997081;28;20866;-55
2021/11/25 02:16:00;;;;;;;23.77;17.37;;;4.50;99.90;;;;;;4997355;28;20173;-57
2021/11/25 02:18:26;;;;;;;26.40;18.03;;;4.60;99.90;;;;;;4996927;28;20287;-56
2021/11/25 02:20:55;;;;;;;27.90;18.17;;;4.60;99.90;;;;;;4996852;28;20470;-58
2021/11/25 02:23:21;;;;;;;26.00;20.00;;;4.40;99.90;;;;;;4997106;28;20411;-57
2021/11/25 02:25:48;;;;;;;25.97;17.57;;;4.20;99.90;;;;;;4996822;28;20408;-58
2021/11/25 02:28:21;;;;;;;24.07;17.73;;;4.30;99.90;;;;;;4995373;28;20410;-57
2021/11/25 02:30:48;;;;;;;21.40;15.27;;;4.40;99.90;;;;;;4997062;28;20432;-57
2021/11/25 02:33:15;;;;;;;21.10;15.87;;;4.50;99.90;;;;;;4996726;28;20758;-57
2021/11/25 02:35:41;;;;;;;22.53;16.23;;;4.60;99.90;;;;;;4996795;28;20404;-56
2021/11/25 02:38:08;;;;;;;25.73;18.40;;;4.70;99.90;;;;;;4997108;28;20455;-57
2021/11/25 02:40:43;;;;;;;23.70;17.73;;;4.70;99.90;;;;;;4996299;28;20400;-62
2021/11/25 02:43:12;;;;;;;24.00;18.40;;;4.70;99.90;;;;;;4996213;28;20780;-62
2021/11/25 02:45:50;;;;;;;22.70;16.00;;;4.70;99.90;;;;;;4996500;28;20462;-62
2021/11/25 02:48:17;;;;;;;24.97;17.30;;;4.80;99.90;;;;;;4996808;28;20388;-60
2021/11/25 02:50:44;;;;;;;26.30;18.47;;;4.60;99.90;;;;;;4996333;28;20431;-62
2021/11/25 02:53:10;;;;;;;23.17;17.10;;;4.60;99.90;;;;;;4996959;28;20407;-62
2021/11/25 02:55:36;;;;;;;22.87;17.47;;;4.70;99.90;;;;;;4996317;28;20416;-59
2021/11/25 02:58:02;;;;;;;26.17;18.60;;;4.80;99.90;;;;;;4995455;28;20416;-57
2021/11/25 03:00:33;;;;;;;23.10;17.00;;;4.90;99.90;;;;;;4996095;28;20459;-57
2021/11/25 03:03:06;;;;;;;25.03;17.37;;;4.90;99.90;;;;;;4996289;28;20602;-54
2021/11/25 03:05:33;;;;;;;24.70;18.90;;;4.80;99.90;;;;;;4996196;28;20388;-56
2021/11/25 03:08:04;;;;;;;23.47;18.50;;;4.60;99.90;;;;;;4996731;28;20408;-57
2021/11/25 03:10:42;;;;;;;21.50;15.57;;;4.50;99.90;;;;;;4995724;28;20914;-62
2021/11/25 03:13:09;;;;;;;26.37;18.00;;;4.30;99.90;;;;;;4977978;28;20407;-62
2021/11/25 03:15:36;;;;;;;23.60;17.83;;;4.40;99.90;;;;;;4995957;28;20760;-61
2021/11/25 03:18:03;;;;;;;27.10;18.50;;;4.40;99.90;;;;;;4995689;28;20802;-61
2021/11/25 03:20:29;;;;;;;24.43;17.33;;;4.30;99.90;;;;;;4995995;28;20404;-62
2021/11/25 03:22:55;;;;;;;23.40;17.63;;;4.30;99.90;;;;;;4995766;28;20404;-62
2021/11/25 03:25:21;;;;;;;27.87;18.07;;;4.40;99.90;;;;;;4995631;28;20404;-58
2021/11/25 03:27:47;;;;;;;24.07;17.33;;;4.30;99.90;;;;;;4995308;28;20408;-58
2021/11/25 03:30:13;;;;;;;23.10;17.23;;;4.30;99.90;;;;;;4995663;28;20404;-59
2021/11/25 03:32:38;;;;;;;24.23;17.13;;;4.30;99.90;;;;;;4995526;28;20450;-56
2021/11/25 03:35:04;;;;;;;23.80;17.30;;;4.30;99.90;;;;;;4995526;28;20641;-59
2021/11/25 03:37:30;;;;;;;23.77;17.83;;;4.30;99.90;;;;;;4995573;28;20169;-58
2021/11/25 03:39:56;;;;;;;23.90;18.60;;;4.40;99.90;;;;;;4995623;28;20459;-55
2021/11/25 03:42:21;;;;;;;24.60;18.50;;;4.50;99.90;;;;;;4995062;28;20755;-58
2021/11/25 03:44:49;;;;;;;26.77;18.57;;;4.50;99.90;;;;;;4995621;28;20168;-58
2021/11/25 03:47:15;;;;;;;21.80;15.93;;;4.60;99.90;;;;;;4995627;28;20286;-62
2021/11/25 03:49:41;;;;;;;26.67;19.60;;;4.60;99.90;;;;;;4995568;28;20443;-61
2021/11/25 03:52:07;;;;;;;23.33;17.13;;;4.40;99.90;;;;;;4977620;28;20508;-62
2021/11/25 03:54:33;;;;;;;24.20;17.73;;;4.30;99.90;;;;;;4977587;28;20196;-61
2021/11/25 03:56:58;;;;;;;22.27;15.90;;;4.30;99.90;;;;;;4994613;28;20821;-62
2021/11/25 03:59:24;;;;;;;21.70;17.00;;;4.30;99.90;;;;;;4994933;28;20196;-61
2021/11/25 04:01:49;;;;;;;22.40;16.57;;;4.40;99.90;;;;;;4994848;28;20311;-63
2021/11/25 04:04:15;;;;;;;27.07;19.23;;;4.60;99.90;;;;;;4994962;28;20168;-57
2021/11/25 04:06:41;;;;;;;27.07;20.13;;;4.60;99.90;;;;;;4995094;28;20173;-57
2021/11/25 04:09:07;;;;;;;23.50;18.10;;;4.60;99.90;;;;;;4995141;28;20184;-57
2021/11/25 04:11:32;;;;;;;25.97;17.33;;;4.60;99.90;;;;;;4994666;28;20247;-57
2021/11/25 04:14:02;;;;;;;28.87;19.60;;;4.50;99.90;;;;;;4995191;28;20416;-58
2021/11/25 04:16:27;;;;;;;26.20;19.50;;;4.40;99.90;;;;;;4995132;28;20752;-56
2021/11/25 04:18:53;;;;;;;25.73;18.77;;;4.30;99.90;;;;;;4994728;28;20567;-62
2021/11/25 04:21:18;;;;;;;23.83;18.03;;;4.30;99.90;;;;;;4995099;28;20757;-62
2021/11/25 04:23:44;;;;;;;27.57;19.40;;;4.30;99.90;;;;;;4995443;28;20157;-57
2021/11/25 04:26:10;;;;;;;24.90;18.00;;;4.30;99.90;;;;;;4995023;28;20168;-60
2021/11/25 04:28:35;;;;;;;27.00;18.60;;;4.30;99.90;;;;;;4988676;28;20545;-56
2021/11/25 04:36:30;;;;;;;24.70;17.40;;;4.40;99.90;;;;;;4975564;28;20388;-62
2021/11/25 04:38:56;;;;;;;27.53;17.90;;;4.40;99.90;;;;;;4974870;28;20444;-62
2021/11/25 04:41:21;;;;;;;23.60;18.27;;;4.50;99.90;;;;;;4982768;28;20463;-62
2021/11/25 04:43:47;;;;;;;27.13;19.17;;;4.70;99.90;;;;;;4994291;28;20230;-61
2021/11/25 04:46:13;;;;;;;28.50;19.90;;;4.60;99.90;;;;;;5020426;23;20289;-60
2021/11/25 04:48:38;;;;;;;25.30;18.80;;;4.60;99.90;;;;;;5005084;28;20186;-61
2021/11/25 04:51:04;;;;;;;23.20;17.70;;;4.40;99.90;;;;;;5012359;28;20195;-60
2021/11/25 04:53:29;;;;;;;25.90;17.33;;;4.40;99.90;;;;;;5012788;28;20179;-60
2021/11/25 04:55:55;;;;;;;23.33;17.60;;;4.30;99.90;;;;;;5008462;28;20250;-61
2021/11/25 04:58:21;;;;;;;24.87;18.13;;;4.40;99.90;;;;;;5013320;28;20659;-61
2021/11/25 05:00:47;;;;;;;23.73;16.67;;;4.50;99.90;;;;;;5013020;28;20247;-62
2021/11/25 05:03:12;;;;;;;25.93;18.73;;;4.40;99.90;;;;;;5013388;28;20399;-61
2021/11/25 05:05:38;;;;;;;24.10;16.77;;;4.40;99.90;;;;;;5013206;28;20177;-61
2021/11/25 05:08:04;;;;;;;26.60;17.97;;;4.40;99.90;;;;;;5013489;28;20518;-61
2021/11/25 05:10:30;;;;;;;28.00;18.40;;;4.30;99.90;;;;;;5013318;28;20406;-60
2021/11/25 05:12:56;;;;;;;29.03;20.13;;;4.20;99.90;;;;;;5013031;28;20403;-61
2021/11/25 05:15:22;;;;;;;28.50;19.73;;;4.20;99.90;;;;;;5013298;28;20403;-61
2021/11/25 05:17:48;;;;;;;27.37;18.83;;;4.20;99.90;;;;;;5012714;28;20200;-61
2021/11/25 05:20:15;;;;;;;26.67;19.07;;;4.20;99.90;;;;;;5013205;28;20958;-60
2021/11/25 05:22:41;;;;;;;27.63;17.73;;;4.20;99.90;;;;;;5013234;28;20414;-62
2021/11/25 05:25:08;;;;;;;22.27;15.80;;;4.20;99.90;;;;;;5013311;28;20410;-62
2021/11/25 05:27:35;;;;;;;25.03;17.47;;;4.10;99.90;;;;;;5012681;28;20419;-61
2021/11/25 05:30:01;;;;;;;27.37;19.20;;;4.00;99.90;;;;;;5013130;28;20494;-61
2021/11/25 05:32:26;;;;;;;23.60;16.53;;;4.00;99.90;;;;;;5012849;28;20461;-62
2021/11/25 05:34:52;;;;;;;24.40;18.10;;;4.00;99.90;;;;;;5013284;28;20402;-62
2021/11/25 05:37:18;;;;;;;24.03;16.80;;;4.00;99.90;;;;;;5012926;28;20539;-62
2021/11/25 05:39:44;;;;;;;21.80;17.23;;;4.10;99.90;;;;;;5012830;28;20688;-61
2021/11/25 05:42:10;;;;;;;26.00;17.93;;;4.30;99.90;;;;;;5012587;28;20461;-61
2021/11/25 05:44:37;;;;;;;26.77;19.37;;;4.30;99.90;;;;;;5013187;28;20837;-61
2021/11/25 05:47:03;;;;;;;25.50;19.07;;;4.30;99.90;;;;;;5012436;28;20504;-61
2021/11/25 05:49:29;;;;;;;28.00;18.90;;;4.20;99.90;;;;;;5013065;28;20446;-61
2021/11/25 05:51:55;;;;;;;27.30;19.10;;;4.20;99.90;;;;;;5013069;28;20813;-61
2021/11/25 05:54:20;;;;;;;26.13;17.70;;;4.10;99.90;;;;;;5012679;28;20540;-61
2021/11/25 05:56:46;;;;;;;28.40;18.97;;;4.10;99.90;;;;;;5012758;28;20199;-61
2021/11/25 05:59:11;;;;;;;28.17;19.00;;;4.20;99.90;;;;;;5012620;28;20188;-60
2021/11/25 06:01:37;;;;;;;25.27;18.30;;;4.30;99.90;;;;;;5012558;28;20207;-60
2021/11/25 06:04:03;;;;;;;29.80;19.47;;;4.30;99.90;;;;;;5014249;28;20633;-60
2021/11/25 06:06:28;;;;;;;23.47;16.63;;;4.30;99.90;;;;;;5016478;28;20184;-61
2021/11/25 06:08:54;;;;;;;24.33;18.33;;;4.30;99.90;;;;;;5016352;28;20411;-60
2021/11/25 06:11:20;;;;;;;25.00;19.30;;;4.30;99.90;;;;;;5016451;28;20178;-60
2021/11/25 06:13:45;;;;;;;25.43;17.67;;;4.40;99.90;;;;;;5016100;28;20218;-60
2021/11/25 06:16:11;;;;;;;28.37;19.27;;;4.40;99.90;;;;;;5015967;28;20200;-60
2021/11/25 06:18:38;;;;;;;25.00;17.50;;;4.30;99.90;;;;;;5016285;28;20196;-60
2021/11/25 06:21:04;;;;;;;30.00;21.00;;;4.40;99.90;;;;;;5016425;28;20408;-59
2021/11/25 06:23:30;;;;;;;28.43;19.43;;;4.50;99.90;;;;;;5016326;28;20486;-60
2021/11/25 06:25:56;;;;;;;27.83;19.47;;;4.50;99.90;;;;;;5016373;28;20502;-60
2021/11/25 06:28:22;;;;;;;26.50;19.17;;;4.60;99.90;;;;;;5015859;28;20180;-60
2021/11/25 06:30:47;;;;;;;26.73;18.77;;;4.60;99.90;;;;;;4998254;28;20212;-60
2021/11/25 06:33:13;;;;;;;29.60;20.67;;;4.70;99.90;;;;;;4982595;28;20172;-60
2021/11/25 06:35:39;;;;;;;25.40;18.07;;;4.50;99.90;;;;;;5015908;28;20168;-60
2021/11/25 06:38:05;;;;;;;26.97;18.87;;;4.50;99.90;;;;;;5015931;28;20175;-59
2021/11/25 06:40:33;;;;;;;28.57;19.00;;;4.50;99.90;;;;;;5015744;28;20194;-60
2021/11/25 06:43:02;;;;;;;28.60;21.23;;;4.50;99.90;;;;;;4998271;28;20411;-59
2021/11/25 06:45:27;;;;;;;28.50;19.50;;;4.50;99.90;;;;;;5015755;28;20415;-60
2021/11/25 06:47:54;;;;;;;29.07;19.57;;;4.50;99.90;;;;;;5015213;28;21003;-61
2021/11/25 06:50:22;;;;;;;29.53;20.47;;;4.60;99.90;;;;;;5015699;28;20164;-60
2021/11/25 06:52:48;;;;;;;29.10;18.77;;;4.60;99.90;;;;;;4998000;28;20970;-61
2021/11/25 06:55:15;;;;;;;26.30;19.20;;;4.60;99.90;;;;;;5015574;28;20775;-60
2021/11/25 06:57:43;;;;;;;29.17;19.63;;;4.70;99.90;;;;;;5014720;28;20858;-61
2021/11/25 07:00:11;;;;;;;31.30;21.23;;;4.70;99.90;;;;;;5015327;28;20446;-61
2021/11/25 07:02:37;;;;;;;26.80;20.13;;;4.60;99.90;;;;;;5014897;28;20407;-61
2021/11/25 07:05:05;;;;;;;28.30;19.40;;;4.70;99.90;;;;;;5015205;28;20402;-61
2021/11/25 07:07:31;;;;;;;26.17;18.10;;;4.80;99.90;;;;;;5015009;28;20243;-62
2021/11/25 07:09:57;;;;;;;29.20;20.10;;;4.90;99.90;;;;;;5015051;28;20411;-60
2021/11/25 07:12:23;;;;;;;26.33;17.97;;;4.80;99.90;;;;;;5015133;28;20457;-61
2021/11/25 07:14:48;;;;;;;25.60;19.60;;;4.60;99.90;;;;;;5014652;28;20164;-61
2021/11/25 07:17:15;;;;;;;29.00;18.67;;;4.60;99.90;;;;;;4997070;28;20206;-59
2021/11/25 07:19:41;;;;;;;28.43;18.13;;;4.70;99.90;;;;;;5014981;28;20196;-64
2021/11/25 07:22:07;;;;;;;26.13;19.40;;;4.80;99.90;;;;;;5015072;28;20411;-63
2021/11/25 07:24:33;;;;;;;26.60;17.90;;;4.80;99.90;;;;;;5015334;28;20537;-63
2021/11/25 07:26:59;;;;;;;28.43;20.87;;;4.80;99.90;;;;;;5014626;28;20191;-63
2021/11/25 07:29:24;;;;;;;35.00;21.17;;;4.70;99.90;;;;;;5015059;28;20407;-63
2021/11/25 07:31:51;;;;;;;29.07;21.10;;;4.60;99.90;;;;;;5014536;28;20206;-63
2021/11/25 07:34:17;;;;;;;25.37;19.00;;;4.40;99.90;;;;;;4980980;28;20172;-63
2021/11/25 07:36:42;;;;;;;27.67;20.00;;;4.40;99.90;;;;;;5014693;28;20434;-62
2021/11/25 07:39:08;;;;;;;23.47;17.97;;;4.50;99.90;;;;;;5011238;28;21199;-64
2021/11/25 07:41:38;;;;;;;24.23;17.10;;;4.70;99.90;;;;;;5003961;28;20176;-63
2021/11/25 07:44:04;;;;;;;26.03;18.00;;;4.60;99.90;;;;;;4994875;28;20563;-63
2021/11/25 07:46:29;;;;;;;26.67;18.90;;;4.50;99.90;;;;;;5002032;28;20578;-63
2021/11/25 07:48:55;;;;;;;22.30;15.63;;;4.40;99.90;;;;;;5014509;28;20797;-63
2021/11/25 07:51:21;;;;;;;24.35;17.77;;;4.50;99.90;;;;;;5014239;28;20422;-61
2021/11/25 07:53:48;;;;;;;23.63;17.40;;;4.60;99.90;;;;;;5014922;28;20184;-62
2021/11/25 07:56:13;;;;;;;24.87;17.20;;;4.70;99.90;;;;;;5014936;28;20204;-63
2021/11/25 07:58:39;;;;;;;25.67;17.70;;;4.60;99.90;;;;;;4996966;28;20460;-62
2021/11/25 08:01:05;;;;;;;24.00;17.90;;;4.60;99.90;;;;;;5014794;28;20271;-62
2021/11/25 08:03:30;;;;;;;24.23;17.07;;;4.70;99.90;;;;;;5014719;28;20225;-61
2021/11/25 08:05:56;;;;;;;27.10;17.10;;;4.60;99.90;;;;;;5014547;28;20188;-61
2021/11/25 08:08:22;;;;;;;24.03;17.70;;;4.50;99.90;;;;;;5015342;28;20168;-61
2021/11/25 08:10:47;;;;;;;26.40;18.27;;;4.40;99.90;;;;;;5014488;28;20179;-62
2021/11/25 08:13:13;;;;;;;32.07;20.87;;;4.30;99.90;;;;;;4996580;28;20176;-61
2021/11/25 08:15:39;;;;;;;25.30;18.60;;;4.30;99.90;;;;;;4996647;28;20176;-62
2021/11/25 08:18:05;;;;;;;28.97;19.63;;;4.30;99.90;;;;;;5013732;28;20498;-62
2021/11/25 08:20:31;;;;;;;29.70;20.30;;;4.40;99.90;;;;;;5014186;28;20633;-62
2021/11/25 08:22:57;;;;;;;27.27;18.20;;;4.40;99.90;;;;;;5013912;28;20399;-59
2021/11/25 08:25:24;;;;;;;25.30;18.73;;;4.50;99.90;;;;;;5013684;28;20175;-61
2021/11/25 08:27:54;;;;;;;29.70;19.03;;;4.50;99.90;;;;;;5012366;28;20187;-61
2021/11/25 08:30:21;;;;;;;25.97;18.50;;;4.70;99.90;;;;;;5013584;28;20757;-61
2021/11/25 08:32:47;;;;;;;27.70;19.90;;;4.80;99.90;;;;;;4995846;28;20926;-61
2021/11/25 08:35:13;;;;;;;28.13;18.90;;;5.00;99.90;;;;;;5014070;28;20935;-61
2021/11/25 08:37:40;;;;;;;26.67;19.03;;;5.20;99.90;;;;;;5013761;28;20451;-61
2021/11/25 08:40:07;;;;;;;27.80;19.17;;;5.10;99.90;;;;;;5013908;28;20453;-60
2021/11/25 08:42:33;;;;;;;27.87;18.43;;;5.10;99.90;;;;;;5013606;28;20840;-61
2021/11/25 08:44:59;;;;;;;26.70;18.67;;;5.20;99.90;;;;;;4996604;28;20431;-59
2021/11/25 08:47:24;;;;;;;28.60;18.47;;;5.10;99.90;;;;;;5013565;28;20265;-59
2021/11/25 08:49:53;;;;;;;28.57;20.50;;;5.20;99.90;;;;;;5013892;28;20533;-62
2021/11/25 08:52:18;;;;;;;30.43;19.40;;;5.00;99.90;;;;;;4996169;28;20218;-62
2021/11/25 08:54:44;;;;;;;29.67;20.27;;;4.80;99.90;;;;;;5014089;28;20403;-63
2021/11/25 08:57:10;;;;;;;26.80;18.30;;;4.80;99.90;;;;;;4996121;28;20192;-63
2021/11/25 08:59:36;;;;;;;27.10;17.90;;;4.90;99.90;;;;;;5013519;28;20219;-63
2021/11/25 09:02:02;;;;;;;27.43;16.80;;;5.00;99.90;;;;;;5013487;28;20243;-63
2021/11/25 09:04:30;;;;;;;29.00;17.23;;;5.00;99.90;;;;;;5013799;28;20415;-63
2021/11/25 09:06:56;;;;;;;31.00;20.03;;;5.00;99.90;;;;;;5012944;28;20457;-64
2021/11/25 09:09:22;;;;;;;31.50;19.80;;;5.00;99.90;;;;;;4995565;28;20423;-64
2021/11/25 09:11:47;;;;;;;31.30;21.60;;;5.10;99.90;;;;;;5013485;28;20765;-64
2021/11/25 09:14:13;;;;;;;30.93;20.73;;;5.20;99.90;;;;;;5012884;28;20641;-63
2021/11/25 09:16:41;;;;;;;28.57;20.17;;;5.30;99.90;;;;;;4994968;28;20738;-63
2021/11/25 09:19:06;;;;;;;32.70;22.47;;;5.10;99.90;;;;;;5013110;28;20955;-64
2021/11/25 09:21:32;;;;;;;30.27;18.97;;;5.20;99.90;;;;;;4995492;28;20477;-64
2021/11/25 09:24:06;;;;;;;33.03;21.03;;;5.30;99.90;;;;;;4995314;28;20172;-64
2021/11/25 09:26:36;;;;;;;28.37;19.67;;;5.10;99.90;;;;;;5013153;28;20763;-64
2021/11/25 09:29:02;;;;;;;31.90;21.13;;;5.00;99.90;;;;;;5012794;28;20404;-64
2021/11/25 09:31:29;;;;;;;30.30;20.73;;;4.80;99.90;;;;;;5012972;28;20445;-64
2021/11/25 09:33:55;;;;;;;27.10;19.77;;;4.90;99.90;;;;;;5013112;28;20410;-64
2021/11/25 09:36:22;;;;;;;29.60;20.47;;;4.90;99.90;;;;;;5012893;28;21058;-64
2021/11/25 09:38:49;;;;;;;32.10;20.50;;;4.80;99.90;;;;;;5015192;28;20552;-62
2021/11/25 09:41:15;;;;;;;30.70;19.90;;;4.90;99.90;;;;;;5011871;28;20403;-63
2021/11/25 09:43:41;;;;;;;27.67;18.30;;;5.00;99.90;;;;;;5016918;28;20462;-64
2021/11/25 09:46:09;;;;;;;31.67;20.70;;;4.90;99.90;;;;;;5016740;28;20450;-63
2021/11/25 09:48:37;;;;;;;30.87;21.93;;;4.80;99.90;;;;;;4998941;28;20422;-64
2021/11/25 09:51:04;;;;;;;34.93;23.23;;;4.70;99.90;;;;;;5017108;28;20406;-63
2021/11/25 09:53:29;;;;;;;29.70;22.20;;;4.70;99.90;;;;;;5016840;28;20410;-63
2021/11/25 09:55:57;;;;;;;29.57;21.37;;;4.90;99.90;;;;;;5017042;28;20500;-63
2021/11/25 09:58:25;;;;;;;35.00;22.90;;;5.00;99.90;;;;;;5016893;28;20535;-63
2021/11/25 10:01:02;;;;;;;31.10;21.17;;;5.10;99.90;;;;;;5016884;28;20460;-63
2021/11/25 10:03:29;;;;;;;28.43;21.67;;;5.00;99.90;;;;;;4998839;28;20441;-63
2021/11/25 10:05:57;;;;;;;28.20;20.57;;;5.00;99.90;;;;;;5016757;28;20445;-63
2021/11/25 10:08:27;;;;;;;32.23;23.27;;;4.80;99.90;;;;;;5017016;28;20415;-62
2021/11/25 10:11:01;;;;;;;30.83;20.00;;;5.00;99.90;;;;;;5017099;28;20434;-62
2021/11/25 10:13:35;;;;;;;29.80;21.30;;;5.20;99.90;;;;;;5016693;28;20471;-62
2021/11/25 10:16:01;;;;;;;31.67;20.83;;;5.30;99.90;;;;;;5016475;28;20431;-62
2021/11/25 10:18:34;;;;;;;29.40;19.83;;;5.40;99.90;;;;;;5016436;28;20861;-63
2021/11/25 10:21:04;;;;;;;32.03;21.73;;;5.50;99.90;;;;;;5017586;28;20490;-62
2021/11/25 10:23:30;;;;;;;27.70;20.73;;;5.50;99.90;;;;;;5016930;28;20407;-62
2021/11/25 10:26:04;;;;;;;31.07;20.03;;;5.60;99.90;;;;;;5016564;28;20426;-61
2021/11/25 10:28:35;;;;;;;30.83;21.43;;;5.40;99.90;;;;;;4998764;28;20411;-62
2021/11/25 10:31:15;;;;;;;31.30;22.50;;;5.40;99.90;;;;;;5016682;28;20503;-61
2021/11/25 10:33:59;;;;;;;28.33;20.53;;;5.40;99.90;;;;;;5015932;28;20402;-63
2021/11/25 10:37:05;;;;;;;26.00;19.80;;;5.40;99.90;;;;;;5015929;28;20446;-62
2021/11/25 10:42:12;;;;;;;26.70;19.73;;;5.40;99.90;;;;;;5016234;28;20406;-62
2021/11/25 10:44:46;;;;;;;32.47;21.73;;;5.40;99.90;;;;;;5015714;28;20460;-61
2021/11/25 10:47:18;;;;;;;31.43;21.50;;;5.40;99.90;;;;;;5027873;23;20521;-60
2021/11/25 10:49:53;;;;;;;33.53;22.27;;;5.40;99.90;;;;;;5002752;28;20796;-57
2021/11/25 10:52:29;;;;;;;28.07;20.20;;;5.20;99.90;;;;;;4995936;28;20923;-58
2021/11/25 10:55:18;;;;;;;28.77;21.00;;;5.10;99.90;;;;;;4995904;28;20878;-60
2021/11/25 10:57:49;;;;;;;30.40;21.43;;;5.30;99.90;;;;;;4995709;28;20416;-60
2021/11/25 11:00:26;;;;;;;27.83;19.00;;;5.50;99.90;;;;;;4996132;28;20451;-61
2021/11/25 11:03:14;;;;;;;28.80;20.90;;;5.60;99.90;;;;;;4995851;28;20797;-61
2021/11/25 11:05:57;;;;;;;29.50;21.17;;;5.50;99.90;;;;;;4995787;28;20455;-60
2021/11/25 11:08:27;;;;;;;30.50;22.10;;;5.60;99.90;;;;;;4998772;28;20442;-61
2021/11/25 11:11:05;;;;;;;28.13;20.63;;;5.50;99.90;;;;;;4997918;28;20410;-62
2021/11/25 11:13:46;;;;;;;31.93;21.97;;;5.60;99.90;;;;;;5015594;28;20446;-60
2021/11/25 11:16:41;;;;;;;31.63;22.60;;;5.60;99.90;;;;;;5012309;28;20455;-62
2021/11/25 11:19:11;;;;;;;29.23;22.10;;;5.60;99.90;;;;;;5015248;28;20462;-58
2021/11/25 11:21:42;;;;;;;31.10;22.30;;;5.70;99.90;;;;;;5015204;28;20389;-58
2021/11/25 11:24:13;;;;;;;30.97;22.23;;;5.70;99.90;;;;;;5014998;28;20407;-58
2021/11/25 11:26:45;;;;;;;28.07;20.87;;;5.70;99.90;;;;;;5015201;28;20478;-59
2021/11/25 11:29:11;;;;;;;28.27;19.53;;;5.70;99.90;;;;;;5015562;28;20479;-59
2021/11/25 11:31:38;;;;;;;35.77;21.60;;;5.70;99.90;;;;;;5015647;28;20477;-63
2021/11/25 11:34:06;;;;;;;30.60;20.87;;;5.80;99.90;;;;;;5015231;28;20447;-57
2021/11/25 11:36:34;;;;;;;27.03;20.00;;;6.00;99.90;;;;;;5015399;28;20561;-57
2021/11/25 11:39:00;;;;;;;30.27;19.20;;;5.70;99.90;;;;;;5014605;28;20508;-62
2021/11/25 11:41:32;;;;;;;29.77;21.80;;;5.60;99.90;;;;;;5014841;28;20411;-62
2021/11/25 11:44:02;;;;;;;26.47;20.27;;;5.50;99.90;;;;;;5014331;28;20141;-58
2021/11/25 11:46:28;;;;;;;28.40;20.20;;;5.70;99.90;;;;;;5014589;28;20414;-63
2021/11/25 11:48:56;;;;;;;31.50;22.63;;;5.60;99.90;;;;;;5015593;28;20407;-62
2021/11/25 11:51:22;;;;;;;31.40;22.20;;;5.40;99.90;;;;;;5014893;28;20422;-62
2021/11/25 11:53:55;;;;;;;32.13;21.90;;;5.10;99.90;;;;;;5014933;28;20978;-63
2021/11/25 11:56:37;;;;;;;29.27;20.63;;;5.30;99.90;;;;;;5015041;28;20294;-62
2021/11/25 11:59:05;;;;;;;32.93;22.70;;;5.10;99.90;;;;;;5014821;28;20537;-62
2021/11/25 12:01:31;;;;;;;33.10;22.87;;;5.10;99.90;;;;;;5016168;28;20446;-63
2021/11/25 12:03:58;;;;;;;37.80;23.00;;;5.00;99.90;;;;;;5017198;28;20407;-56
2021/11/25 12:06:47;;;;;;;32.50;20.87;;;5.10;99.90;;;;;;5016607;28;20422;-59
2021/11/25 12:09:22;;;;;;;28.80;21.57;;;5.30;99.90;;;;;;5016914;28;20426;-59
2021/11/25 12:11:53;;;;;;;30.77;20.90;;;5.50;99.90;;;;;;5017621;28;20918;-57
2021/11/25 12:14:30;;;;;;;32.70;22.27;;;5.30;99.90;;;;;;5016035;28;20744;-59
2021/11/25 12:16:57;;;;;;;30.40;21.50;;;5.50;99.90;;;;;;5014706;28;20445;-57
2021/11/25 12:19:33;;;;;;;35.43;21.80;;;5.50;99.90;;;;;;5015235;28;20477;-59
2021/11/25 12:22:01;;;;;;;29.20;22.10;;;5.20;99.90;;;;;;5015029;28;20434;-61
2021/11/25 12:24:28;;;;;;;30.20;20.80;;;5.10;99.90;;;;;;4996851;28;20447;-54
2021/11/25 12:27:05;;;;;;;32.67;21.43;;;5.20;99.90;;;;;;4996732;28;20443;-58
2021/11/25 12:29:36;;;;;;;29.60;22.23;;;5.10;99.90;;;;;;5015254;28;20402;-56
2021/11/25 12:32:37;;;;;;;34.70;22.67;;;5.30;99.90;;;;;;5014658;28;20403;-58
2021/11/25 12:35:36;;;;;;;30.40;21.30;;;5.50;99.90;;;;;;5014834;28;20396;-57
2021/11/25 12:38:06;;;;;;;33.70;22.27;;;5.70;99.90;;;;;;5015486;28;20529;-56
2021/11/25 12:40:31;;;;;;;28.87;20.17;;;5.40;99.90;;;;;;5015997;28;20468;-59
2021/11/25 12:43:01;;;;;;;27.40;20.53;;;5.40;99.90;;;;;;5015643;28;20403;-63
2021/11/25 12:45:39;;;;;;;27.70;18.83;;;5.50;99.90;;;;;;5016588;28;20633;-56
2021/11/25 12:48:13;;;;;;;32.03;22.10;;;5.60;99.90;;;;;;5022641;28;20454;-59